Hauptseite
METAR-TAF:

METAR-TAF

Flughäfen :

Tschita, Russland

Flughafen Kadala

Breite: 52-05N, Länge: 113-29E, Höhe: 685 m

Beobachtung

Neuester Wetterbericht von vor 29 Minuten, um 21:00 UTC
Wind 4 kt aus Nord
Temperatur -1°C
Luftfeuchtigkeit 46%
Luftdruck 1010 hPa
Sichtweite 10 km oder mehr

METAR: UIAA 292100Z 36002MPS 9999 NSC M01/M11 Q1010 R29/CLRD70 NOSIG RMK QFE699

Zeit: 06:29 (21:29 UTC)

Prognose

Neuester Wetterbericht von vor 1 Stunde und 29 Minuten, um 20:00 UTC
Gültige Prognose vom 29 um 21 UTC bis 30 um 21 UTC
Wind 6 kt aus Nord/Nordwest
Sichtweite 10 km oder mehr
Zeitweise
vom 29 um 21 UTC bis 30 um 02 UTC
Sichtweite: 4500 m
Rauch

TAF: UIAA 292000Z 2921/3021 34003MPS 9999 NSC TEMPO 2921/3002 4500 FU

Wetterbeobachtungen und Prognosen von mehr als 4000 Flughäfen (METAR und TAF Bericht).

Die verfügbaren Stationen werden durch gelbe und rote Markierungen auf der Karte dargestellt.

Führen Sie die Maus auf sie, um den Namen der Station zu sehen.

Darauf klicken, um die Beobachtung von Wetterbeobachtungen und Prognosen zu sehen.

Um die Karte zu ändern : klicken Sie auf den grünen Tasten mit einem schwarzen Kreuz Zum Vergrößern, auf den grünen Button mit einem Gedankenstrich zu verkleinern, oder auf die grünen Pfeile für benachbarte Karten.


METAR-TAF: